aviador You're here:

PARY Decoded Metar

RUBY in AK, USA
Report Time2017-12-18 03:13:00
UTC Time2017-12-18 03:18:16
Flight Rules lifr LIFR
Wind260° at 05 kt
W.Decomp.*RWY 21: 4.3 kt HW 2.5 kt RCW
W.Rank260° ranks 8
Current wind is below 260° avg. (6.0)
Visibility4828 m
Phenomena:Light Snow
Mist
Clouds:Overcast 003 Hf
Expected CloudBase > 400 ft AGL from Temp-Dew spread
Ceiling300 ft
Temp-6°C (ISA -20)
Dew Point-7°C (93% RH)
AAT-10.6°C
QNH1007 hPa
Density Alt-1,526 ft
Elevation653 ft
Report Wrong Elevation
Raw Report
PARY 180313Z AUTO 26005KT 3SM -SN BR OVC003 M06/M07 A2973 RMK AO2
SNB02 P0000 FZRANO=

Extra information for PARY:More info

Metar Taf Metar & Taf Last 4 Metars F.Rules Stats Wind Profile Meteogram Temp Stats Airport Information Weather charts Add Link Nearby VenuesMetar ALERT Operation Metar Decoded Social comments

AIRNAV info for PARY